sensor_id;sensor_type;location;lat;lon;timestamp;P1;P2;P0
68713;PMS7003;55690;51.566;19.198;2023-11-22T00:02:49;9;5;4
68713;PMS7003;55690;51.566;19.198;2023-11-22T00:06:55;13;4;2
68713;PMS7003;55690;51.566;19.198;2023-11-22T00:11:01;11;8;5
68713;PMS7003;55690;51.566;19.198;2023-11-22T00:15:08;14;7;4
68713;PMS7003;55690;51.566;19.198;2023-11-22T00:19:14;9;5;4
68713;PMS7003;55690;51.566;19.198;2023-11-22T00:23:22;9;4;3
68713;PMS7003;55690;51.566;19.198;2023-11-22T00:27:30;11;9;7
68713;PMS7003;55690;51.566;19.198;2023-11-22T00:31:35;14;5;4
68713;PMS7003;55690;51.566;19.198;2023-11-22T00:35:38;12;8;6
68713;PMS7003;55690;51.566;19.198;2023-11-22T00:39:45;7;5;4
68713;PMS7003;55690;51.566;19.198;2023-11-22T00:43:51;10;5;2
68713;PMS7003;55690;51.566;19.198;2023-11-22T00:47:57;8;4;4
68713;PMS7003;55690;51.566;19.198;2023-11-22T00:52:04;10;7;4
68713;PMS7003;55690;51.566;19.198;2023-11-22T00:56:10;8;5;4
68713;PMS7003;55690;51.566;19.198;2023-11-22T01:00:16;4;4;3
68713;PMS7003;55690;51.566;19.198;2023-11-22T01:04:22;7;3;3
68713;PMS7003;55690;51.566;19.198;2023-11-22T01:08:28;2;2;1
68713;PMS7003;55690;51.566;19.198;2023-11-22T01:12:35;7;3;2
68713;PMS7003;55690;51.566;19.198;2023-11-22T01:16:41;6;3;2
68713;PMS7003;55690;51.566;19.198;2023-11-22T01:20:47;10;6;4
68713;PMS7003;55690;51.566;19.198;2023-11-22T01:24:53;13;3;3
68713;PMS7003;55690;51.566;19.198;2023-11-22T01:28:59;1;1;1
68713;PMS7003;55690;51.566;19.198;2023-11-22T01:33:06;5;4;3
68713;PMS7003;55690;51.566;19.198;2023-11-22T01:37:12;7;2;2
68713;PMS7003;55690;51.566;19.198;2023-11-22T01:41:18;3;2;0
68713;PMS7003;55690;51.566;19.198;2023-11-22T01:45:24;1;1;1
68713;PMS7003;55690;51.566;19.198;2023-11-22T01:49:30;5;3;3
68713;PMS7003;55690;51.566;19.198;2023-11-22T01:53:37;3;2;1
68713;PMS7003;55690;51.566;19.198;2023-11-22T01:57:43;4;4;3
68713;PMS7003;55690;51.566;19.198;2023-11-22T02:01:49;1;1;1
68713;PMS7003;55690;51.566;19.198;2023-11-22T02:05:55;2;2;2
68713;PMS7003;55690;51.566;19.198;2023-11-22T02:10:01;5;2;2
68713;PMS7003;55690;51.566;19.198;2023-11-22T02:14:08;2;2;1
68713;PMS7003;55690;51.566;19.198;2023-11-22T02:18:14;1;1;0
68713;PMS7003;55690;51.566;19.198;2023-11-22T02:22:20;11;5;4
68713;PMS7003;55690;51.566;19.198;2023-11-22T02:26:26;5;3;2
68713;PMS7003;55690;51.566;19.198;2023-11-22T02:30:32;1;1;1
68713;PMS7003;55690;51.566;19.198;2023-11-22T02:34:38;4;4;3
68713;PMS7003;55690;51.566;19.198;2023-11-22T02:38:45;1;1;1
68713;PMS7003;55690;51.566;19.198;2023-11-22T02:42:51;5;2;1
68713;PMS7003;55690;51.566;19.198;2023-11-22T02:46:57;4;1;1
68713;PMS7003;55690;51.566;19.198;2023-11-22T02:51:03;6;2;1
68713;PMS7003;55690;51.566;19.198;2023-11-22T02:55:09;7;1;1
68713;PMS7003;55690;51.566;19.198;2023-11-22T02:59:16;6;2;1
68713;PMS7003;55690;51.566;19.198;2023-11-22T03:03:22;3;2;1
68713;PMS7003;55690;51.566;19.198;2023-11-22T03:07:28;8;2;2
68713;PMS7003;55690;51.566;19.198;2023-11-22T03:11:34;3;2;2
68713;PMS7003;55690;51.566;19.198;2023-11-22T03:15:40;2;1;1
68713;PMS7003;55690;51.566;19.198;2023-11-22T03:19:47;3;3;1
68713;PMS7003;55690;51.566;19.198;2023-11-22T03:23:53;3;3;2
68713;PMS7003;55690;51.566;19.198;2023-11-22T03:27:59;15;4;2
68713;PMS7003;55690;51.566;19.198;2023-11-22T03:32:05;3;3;3
68713;PMS7003;55690;51.566;19.198;2023-11-22T03:36:11;4;4;2
68713;PMS7003;55690;51.566;19.198;2023-11-22T03:40:17;1;1;1
68713;PMS7003;55690;51.566;19.198;2023-11-22T03:44:24;4;4;1
68713;PMS7003;55690;51.566;19.198;2023-11-22T03:48:30;1;1;0
68713;PMS7003;55690;51.566;19.198;2023-11-22T03:52:36;4;4;3
68713;PMS7003;55690;51.566;19.198;2023-11-22T03:56:42;13;4;3
68713;PMS7003;55690;51.566;19.198;2023-11-22T04:00:48;7;3;3
68713;PMS7003;55690;51.566;19.198;2023-11-22T04:04:55;2;1;0
68713;PMS7003;55690;51.566;19.198;2023-11-22T04:09:01;3;2;2
68713;PMS7003;55690;51.566;19.198;2023-11-22T04:13:07;1;1;0
68713;PMS7003;55690;51.566;19.198;2023-11-22T04:17:13;1;1;1
68713;PMS7003;55690;51.566;19.198;2023-11-22T04:21:19;3;2;1
68713;PMS7003;55690;51.566;19.198;2023-11-22T04:25:26;1;1;1
68713;PMS7003;55690;51.566;19.198;2023-11-22T04:29:32;1;1;1
68713;PMS7003;55690;51.566;19.198;2023-11-22T04:33:38;0;0;0
68713;PMS7003;55690;51.566;19.198;2023-11-22T04:37:44;3;3;2
68713;PMS7003;55690;51.566;19.198;2023-11-22T04:41:50;1;1;1
68713;PMS7003;55690;51.566;19.198;2023-11-22T04:45:57;2;1;1
68713;PMS7003;55690;51.566;19.198;2023-11-22T04:50:03;3;1;0
68713;PMS7003;55690;51.566;19.198;2023-11-22T04:54:09;3;1;0
68713;PMS7003;55690;51.566;19.198;2023-11-22T04:58:15;1;1;1
68713;PMS7003;55690;51.566;19.198;2023-11-22T05:02:21;2;1;1
68713;PMS7003;55690;51.566;19.198;2023-11-22T05:06:28;0;0;0
68713;PMS7003;55690;51.566;19.198;2023-11-22T05:10:34;2;2;1
68713;PMS7003;55690;51.566;19.198;2023-11-22T05:14:40;3;2;1
68713;PMS7003;55690;51.566;19.198;2023-11-22T05:18:46;10;2;2
68713;PMS7003;55690;51.566;19.198;2023-11-22T05:22:52;3;3;2
68713;PMS7003;55690;51.566;19.198;2023-11-22T05:26:58;4;4;3
68713;PMS7003;55690;51.566;19.198;2023-11-22T05:31:05;0;0;0
68713;PMS7003;55690;51.566;19.198;2023-11-22T05:35:11;1;1;1
68713;PMS7003;55690;51.566;19.198;2023-11-22T05:39:17;2;1;1
68713;PMS7003;55690;51.566;19.198;2023-11-22T05:43:24;2;2;1
68713;PMS7003;55690;51.566;19.198;2023-11-22T05:47:30;2;2;1
68713;PMS7003;55690;51.566;19.198;2023-11-22T05:51:36;1;0;0
68713;PMS7003;55690;51.566;19.198;2023-11-22T05:55:42;4;1;1
68713;PMS7003;55690;51.566;19.198;2023-11-22T05:59:48;2;2;1
68713;PMS7003;55690;51.566;19.198;2023-11-22T06:03:54;8;4;2
68713;PMS7003;55690;51.566;19.198;2023-11-22T06:08:01;1;0;0
68713;PMS7003;55690;51.566;19.198;2023-11-22T06:12:07;3;2;2
68713;PMS7003;55690;51.566;19.198;2023-11-22T06:16:13;1;0;0
68713;PMS7003;55690;51.566;19.198;2023-11-22T06:20:19;1;1;0
68713;PMS7003;55690;51.566;19.198;2023-11-22T06:24:25;0;0;0
68713;PMS7003;55690;51.566;19.198;2023-11-22T06:28:32;0;0;0
68713;PMS7003;55690;51.566;19.198;2023-11-22T06:32:38;0;0;0
68713;PMS7003;55690;51.566;19.198;2023-11-22T06:36:44;0;0;0
68713;PMS7003;55690;51.566;19.198;2023-11-22T06:40:50;2;1;1
68713;PMS7003;55690;51.566;19.198;2023-11-22T06:44:56;1;1;1
68713;PMS7003;55690;51.566;19.198;2023-11-22T06:49:03;1;1;0
68713;PMS7003;55690;51.566;19.198;2023-11-22T06:53:09;5;5;3
68713;PMS7003;55690;51.566;19.198;2023-11-22T06:57:15;2;2;1
68713;PMS7003;55690;51.566;19.198;2023-11-22T07:01:24;1;1;1
68713;PMS7003;55690;51.566;19.198;2023-11-22T07:05:29;3;0;0
68713;PMS7003;55690;51.566;19.198;2023-11-22T07:09:34;2;2;2
68713;PMS7003;55690;51.566;19.198;2023-11-22T07:13:40;7;3;1
68713;PMS7003;55690;51.566;19.198;2023-11-22T07:17:46;0;0;0
68713;PMS7003;55690;51.566;19.198;2023-11-22T07:21:52;0;0;0
68713;PMS7003;55690;51.566;19.198;2023-11-22T07:25:58;10;1;1
68713;PMS7003;55690;51.566;19.198;2023-11-22T07:30:05;2;1;1
68713;PMS7003;55690;51.566;19.198;2023-11-22T07:34:11;1;1;1
68713;PMS7003;55690;51.566;19.198;2023-11-22T07:38:17;2;2;2
68713;PMS7003;55690;51.566;19.198;2023-11-22T07:42:23;2;2;2
68713;PMS7003;55690;51.566;19.198;2023-11-22T07:46:29;0;0;0
68713;PMS7003;55690;51.566;19.198;2023-11-22T07:50:35;5;2;2
68713;PMS7003;55690;51.566;19.198;2023-11-22T07:54:42;1;1;1
68713;PMS7003;55690;51.566;19.198;2023-11-22T07:58:48;3;1;0
68713;PMS7003;55690;51.566;19.198;2023-11-22T08:02:54;1;1;1
68713;PMS7003;55690;51.566;19.198;2023-11-22T08:07:00;0;0;0
68713;PMS7003;55690;51.566;19.198;2023-11-22T08:11:06;2;2;2
68713;PMS7003;55690;51.566;19.198;2023-11-22T08:15:15;0;0;0
68713;PMS7003;55690;51.566;19.198;2023-11-22T08:19:20;0;0;0
68713;PMS7003;55690;51.566;19.198;2023-11-22T08:23:25;1;1;1
68713;PMS7003;55690;51.566;19.198;2023-11-22T08:27:31;1;1;1
68713;PMS7003;55690;51.566;19.198;2023-11-22T08:31:37;1;1;1
68713;PMS7003;55690;51.566;19.198;2023-11-22T08:35:43;1;0;0
68713;PMS7003;55690;51.566;19.198;2023-11-22T08:39:52;2;0;0
68713;PMS7003;55690;51.566;19.198;2023-11-22T08:43:57;3;3;3
68713;PMS7003;55690;51.566;19.198;2023-11-22T08:48:02;2;2;1
68713;PMS7003;55690;51.566;19.198;2023-11-22T08:52:08;4;4;2
68713;PMS7003;55690;51.566;19.198;2023-11-22T08:56:14;12;3;2
68713;PMS7003;55690;51.566;19.198;2023-11-22T09:00:21;4;4;3
68713;PMS7003;55690;51.566;19.198;2023-11-22T09:04:29;3;2;2
68713;PMS7003;55690;51.566;19.198;2023-11-22T09:08:33;3;2;2
68713;PMS7003;55690;51.566;19.198;2023-11-22T09:12:40;3;3;2
68713;PMS7003;55690;51.566;19.198;2023-11-22T09:16:45;12;4;4
68713;PMS7003;55690;51.566;19.198;2023-11-22T09:20:55;4;3;3
68713;PMS7003;55690;51.566;19.198;2023-11-22T09:24:58;4;4;3
68713;PMS7003;55690;51.566;19.198;2023-11-22T09:29:04;5;3;2
68713;PMS7003;55690;51.566;19.198;2023-11-22T09:33:14;7;4;4
68713;PMS7003;55690;51.566;19.198;2023-11-22T09:37:16;2;2;2
68713;PMS7003;55690;51.566;19.198;2023-11-22T09:41:22;4;4;3
68713;PMS7003;55690;51.566;19.198;2023-11-22T09:45:29;1;1;1
68713;PMS7003;55690;51.566;19.198;2023-11-22T09:49:35;4;4;2
68713;PMS7003;55690;51.566;19.198;2023-11-22T09:57:56;7;3;2
68713;PMS7003;55690;51.566;19.198;2023-11-22T10:02:02;3;3;2
68713;PMS7003;55690;51.566;19.198;2023-11-22T10:06:07;3;3;2
68713;PMS7003;55690;51.566;19.198;2023-11-22T10:10:09;3;3;3
68713;PMS7003;55690;51.566;19.198;2023-11-22T10:18:26;6;5;3
68713;PMS7003;55690;51.566;19.198;2023-11-22T10:22:29;4;3;2
68713;PMS7003;55690;51.566;19.198;2023-11-22T10:26:31;2;2;1
68713;PMS7003;55690;51.566;19.198;2023-11-22T10:30:37;4;4;1
68713;PMS7003;55690;51.566;19.198;2023-11-22T10:34:43;3;3;1
68713;PMS7003;55690;51.566;19.198;2023-11-22T10:38:49;6;2;2
68713;PMS7003;55690;51.566;19.198;2023-11-22T10:42:55;8;3;0
68713;PMS7003;55690;51.566;19.198;2023-11-22T10:47:02;1;1;0
68713;PMS7003;55690;51.566;19.198;2023-11-22T10:51:08;2;2;1
68713;PMS7003;55690;51.566;19.198;2023-11-22T10:55:14;2;1;1
68713;PMS7003;55690;51.566;19.198;2023-11-22T10:59:21;7;0;0
68713;PMS7003;55690;51.566;19.198;2023-11-22T11:03:28;4;3;3
68713;PMS7003;55690;51.566;19.198;2023-11-22T11:07:37;3;2;1
68713;PMS7003;55690;51.566;19.198;2023-11-22T11:11:45;1;1;0
68713;PMS7003;55690;51.566;19.198;2023-11-22T11:15:47;1;1;0
68713;PMS7003;55690;51.566;19.198;2023-11-22T11:19:51;2;2;2
68713;PMS7003;55690;51.566;19.198;2023-11-22T11:23:57;3;3;2
68713;PMS7003;55690;51.566;19.198;2023-11-22T11:28:03;4;2;2
68713;PMS7003;55690;51.566;19.198;2023-11-22T11:32:10;2;2;2
68713;PMS7003;55690;51.566;19.198;2023-11-22T11:44:35;3;1;1
68713;PMS7003;55690;51.566;19.198;2023-11-22T11:48:36;1;1;0
68713;PMS7003;55690;51.566;19.198;2023-11-22T11:52:40;4;3;1
68713;PMS7003;55690;51.566;19.198;2023-11-22T11:56:47;2;2;2
68713;PMS7003;55690;51.566;19.198;2023-11-22T12:00:55;2;2;2
68713;PMS7003;55690;51.566;19.198;2023-11-22T12:04:59;3;1;0
68713;PMS7003;55690;51.566;19.198;2023-11-22T12:09:06;0;0;0
68713;PMS7003;55690;51.566;19.198;2023-11-22T12:13:11;3;2;2
68713;PMS7003;55690;51.566;19.198;2023-11-22T12:17:18;3;1;1
68713;PMS7003;55690;51.566;19.198;2023-11-22T12:21:24;2;2;1
68713;PMS7003;55690;51.566;19.198;2023-11-22T12:25:30;1;1;1
68713;PMS7003;55690;51.566;19.198;2023-11-22T12:29:36;4;0;0
68713;PMS7003;55690;51.566;19.198;2023-11-22T12:33:43;0;0;0
68713;PMS7003;55690;51.566;19.198;2023-11-22T12:37:49;0;0;0
68713;PMS7003;55690;51.566;19.198;2023-11-22T12:41:55;5;1;1
68713;PMS7003;55690;51.566;19.198;2023-11-22T12:46:05;1;1;1
68713;PMS7003;55690;51.566;19.198;2023-11-22T12:54:31;3;2;1
68713;PMS7003;55690;51.566;19.198;2023-11-22T12:58:35;0;0;0
68713;PMS7003;55690;51.566;19.198;2023-11-22T13:02:37;2;1;0
68713;PMS7003;55690;51.566;19.198;2023-11-22T13:06:39;1;1;1
68713;PMS7003;55690;51.566;19.198;2023-11-22T13:10:43;3;2;2
68713;PMS7003;55690;51.566;19.198;2023-11-22T13:14:57;1;1;1
68713;PMS7003;55690;51.566;19.198;2023-11-22T13:18:58;0;0;0
68713;PMS7003;55690;51.566;19.198;2023-11-22T13:23:00;0;0;0
68713;PMS7003;55690;51.566;19.198;2023-11-22T13:27:03;2;2;1
68713;PMS7003;55690;51.566;19.198;2023-11-22T13:31:09;2;1;0
68713;PMS7003;55690;51.566;19.198;2023-11-22T13:35:15;0;0;0
68713;PMS7003;55690;51.566;19.198;2023-11-22T13:39:21;4;0;0
68713;PMS7003;55690;51.566;19.198;2023-11-22T13:43:27;1;1;1
68713;PMS7003;55690;51.566;19.198;2023-11-22T13:47:34;1;1;1
68713;PMS7003;55690;51.566;19.198;2023-11-22T13:51:40;4;0;0
68713;PMS7003;55690;51.566;19.198;2023-11-22T13:55:46;2;0;0
68713;PMS7003;55690;51.566;19.198;2023-11-22T13:59:52;8;4;1
68713;PMS7003;55690;51.566;19.198;2023-11-22T14:03:58;1;1;0
68713;PMS7003;55690;51.566;19.198;2023-11-22T14:08:05;2;1;1
68713;PMS7003;55690;51.566;19.198;2023-11-22T14:12:11;2;1;1
68713;PMS7003;55690;51.566;19.198;2023-11-22T14:16:17;0;0;0
68713;PMS7003;55690;51.566;19.198;2023-11-22T14:20:23;2;2;1
68713;PMS7003;55690;51.566;19.198;2023-11-22T14:24:30;3;1;0
68713;PMS7003;55690;51.566;19.198;2023-11-22T14:28:37;4;2;1
68713;PMS7003;55690;51.566;19.198;2023-11-22T14:32:42;2;1;1
68713;PMS7003;55690;51.566;19.198;2023-11-22T14:36:48;3;2;2
68713;PMS7003;55690;51.566;19.198;2023-11-22T14:40:54;0;0;0
68713;PMS7003;55690;51.566;19.198;2023-11-22T14:45:00;1;0;0
68713;PMS7003;55690;51.566;19.198;2023-11-22T14:49:07;8;1;1
68713;PMS7003;55690;51.566;19.198;2023-11-22T14:53:13;1;1;1
68713;PMS7003;55690;51.566;19.198;2023-11-22T14:57:19;7;1;1
68713;PMS7003;55690;51.566;19.198;2023-11-22T15:01:25;1;1;1
68713;PMS7003;55690;51.566;19.198;2023-11-22T15:05:32;1;1;1
68713;PMS7003;55690;51.566;19.198;2023-11-22T15:09:38;1;1;0
68713;PMS7003;55690;51.566;19.198;2023-11-22T15:13:44;8;2;1
68713;PMS7003;55690;51.566;19.198;2023-11-22T15:17:50;1;1;1
68713;PMS7003;55690;51.566;19.198;2023-11-22T15:21:56;0;0;0
68713;PMS7003;55690;51.566;19.198;2023-11-22T15:26:03;4;0;0
68713;PMS7003;55690;51.566;19.198;2023-11-22T15:30:09;1;1;1
68713;PMS7003;55690;51.566;19.198;2023-11-22T15:34:15;0;0;0
68713;PMS7003;55690;51.566;19.198;2023-11-22T15:38:21;0;0;0
68713;PMS7003;55690;51.566;19.198;2023-11-22T15:42:27;3;3;3
68713;PMS7003;55690;51.566;19.198;2023-11-22T15:46:34;2;2;0
68713;PMS7003;55690;51.566;19.198;2023-11-22T15:50:40;1;1;0
68713;PMS7003;55690;51.566;19.198;2023-11-22T15:54:46;3;1;1
68713;PMS7003;55690;51.566;19.198;2023-11-22T15:58:52;1;1;1
68713;PMS7003;55690;51.566;19.198;2023-11-22T16:03:01;0;0;0
68713;PMS7003;55690;51.566;19.198;2023-11-22T16:07:12;3;0;0
68713;PMS7003;55690;51.566;19.198;2023-11-22T16:11:13;1;0;0
68713;PMS7003;55690;51.566;19.198;2023-11-22T16:15:17;1;1;1
68713;PMS7003;55690;51.566;19.198;2023-11-22T16:19:23;1;1;0
68713;PMS7003;55690;51.566;19.198;2023-11-22T16:23:29;2;1;0
68713;PMS7003;55690;51.566;19.198;2023-11-22T16:27:36;1;1;1
68713;PMS7003;55690;51.566;19.198;2023-11-22T16:31:42;1;0;0
68713;PMS7003;55690;51.566;19.198;2023-11-22T16:35:48;2;2;0
68713;PMS7003;55690;51.566;19.198;2023-11-22T16:39:54;1;1;1
68713;PMS7003;55690;51.566;19.198;2023-11-22T16:44:00;2;2;1
68713;PMS7003;55690;51.566;19.198;2023-11-22T16:48:06;2;2;1
68713;PMS7003;55690;51.566;19.198;2023-11-22T16:52:13;1;1;1
68713;PMS7003;55690;51.566;19.198;2023-11-22T16:56:19;1;1;1
68713;PMS7003;55690;51.566;19.198;2023-11-22T17:00:25;2;1;1
68713;PMS7003;55690;51.566;19.198;2023-11-22T17:04:31;1;1;1
68713;PMS7003;55690;51.566;19.198;2023-11-22T17:08:37;1;1;1
68713;PMS7003;55690;51.566;19.198;2023-11-22T17:12:44;1;1;1
68713;PMS7003;55690;51.566;19.198;2023-11-22T17:16:50;1;0;0
68713;PMS7003;55690;51.566;19.198;2023-11-22T17:20:56;1;1;0
68713;PMS7003;55690;51.566;19.198;2023-11-22T17:25:03;1;1;0
68713;PMS7003;55690;51.566;19.198;2023-11-22T17:29:13;4;4;3
68713;PMS7003;55690;51.566;19.198;2023-11-22T17:33:15;9;9;5
68713;PMS7003;55690;51.566;19.198;2023-11-22T17:37:21;5;3;3
68713;PMS7003;55690;51.566;19.198;2023-11-22T17:41:27;4;2;1
68713;PMS7003;55690;51.566;19.198;2023-11-22T17:45:33;9;2;2
68713;PMS7003;55690;51.566;19.198;2023-11-22T17:49:40;3;3;2
68713;PMS7003;55690;51.566;19.198;2023-11-22T17:53:45;3;3;3
68713;PMS7003;55690;51.566;19.198;2023-11-22T17:57:52;4;4;2
68713;PMS7003;55690;51.566;19.198;2023-11-22T18:01:58;10;3;3
68713;PMS7003;55690;51.566;19.198;2023-11-22T18:06:04;3;3;2
68713;PMS7003;55690;51.566;19.198;2023-11-22T18:10:10;3;2;1
68713;PMS7003;55690;51.566;19.198;2023-11-22T18:14:17;8;3;2
68713;PMS7003;55690;51.566;19.198;2023-11-22T18:18:23;10;3;3
68713;PMS7003;55690;51.566;19.198;2023-11-22T18:22:29;10;2;1
68713;PMS7003;55690;51.566;19.198;2023-11-22T18:26:35;2;2;1
68713;PMS7003;55690;51.566;19.198;2023-11-22T18:30:41;3;3;2
68713;PMS7003;55690;51.566;19.198;2023-11-22T18:34:47;4;4;2
68713;PMS7003;55690;51.566;19.198;2023-11-22T18:38:54;4;0;0
68713;PMS7003;55690;51.566;19.198;2023-11-22T18:43:00;11;5;4
68713;PMS7003;55690;51.566;19.198;2023-11-22T18:47:06;4;1;0
68713;PMS7003;55690;51.566;19.198;2023-11-22T18:51:12;5;4;4
68713;PMS7003;55690;51.566;19.198;2023-11-22T18:55:18;5;2;1
68713;PMS7003;55690;51.566;19.198;2023-11-22T18:59:25;13;5;3
68713;PMS7003;55690;51.566;19.198;2023-11-22T19:03:31;6;5;4
68713;PMS7003;55690;51.566;19.198;2023-11-22T19:07:37;5;5;4
68713;PMS7003;55690;51.566;19.198;2023-11-22T19:15:53;11;7;6
68713;PMS7003;55690;51.566;19.198;2023-11-22T19:19:56;12;12;8
68713;PMS7003;55690;51.566;19.198;2023-11-22T19:24:02;14;7;4
68713;PMS7003;55690;51.566;19.198;2023-11-22T19:28:08;9;6;4
68713;PMS7003;55690;51.566;19.198;2023-11-22T19:32:14;15;6;5
68713;PMS7003;55690;51.566;19.198;2023-11-22T19:36:21;18;8;7
68713;PMS7003;55690;51.566;19.198;2023-11-22T19:40:26;17;8;5
68713;PMS7003;55690;51.566;19.198;2023-11-22T19:44:33;3;1;0
68713;PMS7003;55690;51.566;19.198;2023-11-22T19:48:39;19;9;6
68713;PMS7003;55690;51.566;19.198;2023-11-22T19:52:45;17;11;6
68713;PMS7003;55690;51.566;19.198;2023-11-22T19:56:51;10;7;5
68713;PMS7003;55690;51.566;19.198;2023-11-22T20:00:58;1;0;0
68713;PMS7003;55690;51.566;19.198;2023-11-22T20:05:04;12;10;7
68713;PMS7003;55690;51.566;19.198;2023-11-22T20:09:10;18;10;5
68713;PMS7003;55690;51.566;19.198;2023-11-22T20:17:14;20;10;6
68713;PMS7003;55690;51.566;19.198;2023-11-22T20:21:20;9;4;2
68713;PMS7003;55690;51.566;19.198;2023-11-22T20:25:26;7;7;4
68713;PMS7003;55690;51.566;19.198;2023-11-22T20:29:33;20;9;7
68713;PMS7003;55690;51.566;19.198;2023-11-22T20:33:39;15;9;8
68713;PMS7003;55690;51.566;19.198;2023-11-22T20:37:45;7;7;5
68713;PMS7003;55690;51.566;19.198;2023-11-22T20:41:51;10;5;3
68713;PMS7003;55690;51.566;19.198;2023-11-22T20:45:57;12;11;9
68713;PMS7003;55690;51.566;19.198;2023-11-22T20:50:04;17;13;8
68713;PMS7003;55690;51.566;19.198;2023-11-22T20:54:10;21;8;3
68713;PMS7003;55690;51.566;19.198;2023-11-22T20:58:16;11;7;5
68713;PMS7003;55690;51.566;19.198;2023-11-22T21:02:22;13;7;3
68713;PMS7003;55690;51.566;19.198;2023-11-22T21:06:28;10;5;3
68713;PMS7003;55690;51.566;19.198;2023-11-22T21:10:35;14;7;5
68713;PMS7003;55690;51.566;19.198;2023-11-22T21:14:41;7;5;2
68713;PMS7003;55690;51.566;19.198;2023-11-22T21:18:47;12;5;3
68713;PMS7003;55690;51.566;19.198;2023-11-22T21:22:53;8;6;4
68713;PMS7003;55690;51.566;19.198;2023-11-22T21:26:59;4;4;3
68713;PMS7003;55690;51.566;19.198;2023-11-22T21:31:05;10;6;3
68713;PMS7003;55690;51.566;19.198;2023-11-22T21:35:12;9;7;5
68713;PMS7003;55690;51.566;19.198;2023-11-22T21:39:18;13;6;4
68713;PMS7003;55690;51.566;19.198;2023-11-22T21:43:24;5;5;3
68713;PMS7003;55690;51.566;19.198;2023-11-22T21:47:30;20;5;4
68713;PMS7003;55690;51.566;19.198;2023-11-22T21:51:37;13;10;6
68713;PMS7003;55690;51.566;19.198;2023-11-22T21:55:43;15;7;4
68713;PMS7003;55690;51.566;19.198;2023-11-22T21:59:49;18;7;6
68713;PMS7003;55690;51.566;19.198;2023-11-22T22:03:55;9;7;5
68713;PMS7003;55690;51.566;19.198;2023-11-22T22:08:01;6;5;3
68713;PMS7003;55690;51.566;19.198;2023-11-22T22:12:07;5;1;0
68713;PMS7003;55690;51.566;19.198;2023-11-22T22:16:14;23;13;4
68713;PMS7003;55690;51.566;19.198;2023-11-22T22:20:20;5;5;4
68713;PMS7003;55690;51.566;19.198;2023-11-22T22:24:26;8;8;5
68713;PMS7003;55690;51.566;19.198;2023-11-22T22:28:32;9;9;7
68713;PMS7003;55690;51.566;19.198;2023-11-22T22:32:38;17;4;4
68713;PMS7003;55690;51.566;19.198;2023-11-22T22:36:45;2;2;2
68713;PMS7003;55690;51.566;19.198;2023-11-22T22:40:51;8;6;4
68713;PMS7003;55690;51.566;19.198;2023-11-22T22:44:57;19;10;5
68713;PMS7003;55690;51.566;19.198;2023-11-22T22:49:03;8;2;2
68713;PMS7003;55690;51.566;19.198;2023-11-22T22:53:09;14;6;4
68713;PMS7003;55690;51.566;19.198;2023-11-22T22:57:16;9;5;3
68713;PMS7003;55690;51.566;19.198;2023-11-22T23:01:22;8;6;3
68713;PMS7003;55690;51.566;19.198;2023-11-22T23:05:28;12;3;2
68713;PMS7003;55690;51.566;19.198;2023-11-22T23:09:34;6;5;4
68713;PMS7003;55690;51.566;19.198;2023-11-22T23:13:40;16;10;7
68713;PMS7003;55690;51.566;19.198;2023-11-22T23:17:46;9;7;5
68713;PMS7003;55690;51.566;19.198;2023-11-22T23:21:53;5;5;3
68713;PMS7003;55690;51.566;19.198;2023-11-22T23:25:59;19;13;7
68713;PMS7003;55690;51.566;19.198;2023-11-22T23:30:06;14;5;3
68713;PMS7003;55690;51.566;19.198;2023-11-22T23:34:11;12;9;5
68713;PMS7003;55690;51.566;19.198;2023-11-22T23:38:17;5;4;3
68713;PMS7003;55690;51.566;19.198;2023-11-22T23:42:24;10;6;4
68713;PMS7003;55690;51.566;19.198;2023-11-22T23:46:30;14;10;6
68713;PMS7003;55690;51.566;19.198;2023-11-22T23:50:36;7;4;3
68713;PMS7003;55690;51.566;19.198;2023-11-22T23:54:42;7;6;4
68713;PMS7003;55690;51.566;19.198;2023-11-22T23:58:48;10;6;5
